Time;durP1;ratioP1;P1;durP2;ratioP2;P2;SDS_P1;SDS_P2;PMS_P1;PMS_P2;Temp;Humidity;BMP_temperature;BMP_pressure;BME280_temperature;BME280_humidity;BME280_pressure;Samples;Min_cycle;Max_cycle;Signal;HPM_P1;HPM_P2
2022/10/24 00:00:33;;;;;;;22.23;5.68;;;;;;;;;;4951445;29;20058;-65
2022/10/24 00:03:00;;;;;;;8.98;3.00;;;;;;;;;;4949742;28;20502;-66
2022/10/24 00:05:27;;;;;;;6.20;2.83;;;;;;;;;;4950542;29;20102;-65
2022/10/24 00:07:54;;;;;;;11.38;2.78;;;;;;;;;;4932504;29;20086;-65
2022/10/24 00:10:22;;;;;;;8.32;2.63;;;;;;;;;;4950143;29;20169;-66
2022/10/24 00:12:50;;;;;;;8.23;2.55;;;;;;;;;;4935956;29;20675;-67
2022/10/24 00:15:17;;;;;;;5.75;2.60;;;;;;;;;;4949935;29;20114;-66
2022/10/24 00:17:45;;;;;;;10.75;3.22;;;;;;;;;;4948908;29;20068;-66
2022/10/24 00:20:13;;;;;;;7.40;2.58;;;;;;;;;;4949878;29;20047;-66
2022/10/24 00:22:40;;;;;;;7.22;2.13;;;;;;;;;;4950282;29;20596;-66
2022/10/24 00:25:08;;;;;;;8.88;2.03;;;;;;;;;;4937918;29;20055;-65
2022/10/24 00:27:35;;;;;;;9.02;3.17;;;;;;;;;;4949462;29;20058;-65
2022/10/24 00:30:04;;;;;;;8.38;2.42;;;;;;;;;;4944526;29;20170;-65
2022/10/24 00:32:32;;;;;;;7.88;2.33;;;;;;;;;;4947889;29;20086;-65
2022/10/24 00:34:59;;;;;;;6.97;2.15;;;;;;;;;;4948738;29;20173;-66
2022/10/24 00:37:26;;;;;;;9.55;2.55;;;;;;;;;;4949687;29;20529;-65
2022/10/24 00:39:53;;;;;;;8.07;2.05;;;;;;;;;;4949525;29;20043;-65
2022/10/24 00:42:21;;;;;;;13.25;2.20;;;;;;;;;;4937510;28;20097;-65
2022/10/24 00:44:50;;;;;;;6.32;2.22;;;;;;;;;;4949962;29;20133;-66
2022/10/24 00:47:20;;;;;;;8.35;2.75;;;;;;;;;;4947104;29;20059;-66
2022/10/24 00:49:49;;;;;;;7.10;1.65;;;;;;;;;;4947546;29;20055;-65
2022/10/24 00:52:18;;;;;;;9.05;1.88;;;;;;;;;;4947465;29;20047;-66
2022/10/24 00:54:46;;;;;;;4.57;1.75;;;;;;;;;;4945641;29;20059;-65
2022/10/24 00:57:17;;;;;;;10.77;2.10;;;;;;;;;;4943197;29;20051;-67
2022/10/24 00:59:45;;;;;;;8.88;1.90;;;;;;;;;;4927628;29;20759;-65
2022/10/24 01:02:13;;;;;;;6.63;1.73;;;;;;;;;;4949547;29;20129;-69
2022/10/24 01:04:43;;;;;;;7.38;1.67;;;;;;;;;;4928439;29;20059;-66
2022/10/24 01:07:23;;;;;;;6.15;1.80;;;;;;;;;;4931888;29;20055;-66
2022/10/24 01:10:04;;;;;;;8.55;1.48;;;;;;;;;;4947017;29;20625;-67
2022/10/24 01:12:35;;;;;;;6.25;1.65;;;;;;;;;;4946358;29;20062;-67
2022/10/24 01:15:05;;;;;;;8.90;2.20;;;;;;;;;;4945559;29;20471;-65
2022/10/24 01:17:36;;;;;;;10.43;2.22;;;;;;;;;;4944109;29;20062;-65
2022/10/24 01:20:22;;;;;;;9.68;1.95;;;;;;;;;;4930622;29;20055;-65
2022/10/24 01:22:58;;;;;;;10.85;2.15;;;;;;;;;;4945699;29;20070;-67
2022/10/24 01:25:29;;;;;;;8.55;2.33;;;;;;;;;;4945286;29;20494;-65
2022/10/24 01:28:00;;;;;;;7.00;1.88;;;;;;;;;;4943001;29;20051;-66
2022/10/24 01:30:30;;;;;;;10.00;2.50;;;;;;;;;;4945647;29;20059;-65
2022/10/24 01:32:59;;;;;;;11.55;2.63;;;;;;;;;;4945730;29;20442;-66
2022/10/24 01:35:34;;;;;;;9.55;2.00;;;;;;;;;;4945300;29;20043;-65
2022/10/24 01:38:02;;;;;;;10.02;2.53;;;;;;;;;;4948541;29;20059;-66
2022/10/24 01:40:32;;;;;;;9.20;2.10;;;;;;;;;;4946890;29;20087;-66
2022/10/24 01:43:01;;;;;;;6.53;2.25;;;;;;;;;;4949140;29;20126;-67
2022/10/24 01:45:33;;;;;;;6.38;1.90;;;;;;;;;;4929694;29;20055;-66
2022/10/24 01:48:02;;;;;;;7.93;2.55;;;;;;;;;;4948684;29;20505;-67
2022/10/24 01:50:30;;;;;;;6.82;1.90;;;;;;;;;;4931219;29;20051;-65
2022/10/24 01:52:58;;;;;;;9.30;2.20;;;;;;;;;;4943480;29;20111;-66
2022/10/24 01:55:25;;;;;;;16.52;3.10;;;;;;;;;;4948625;29;20141;-64
2022/10/24 01:57:52;;;;;;;9.15;2.15;;;;;;;;;;4944310;29;20058;-65
2022/10/24 02:00:21;;;;;;;14.95;2.45;;;;;;;;;;4942739;29;20044;-66
2022/10/24 02:02:54;;;;;;;6.35;1.95;;;;;;;;;;4927057;28;20051;-66
2022/10/24 02:05:22;;;;;;;9.65;2.05;;;;;;;;;;4946113;29;20051;-66
2022/10/24 02:07:54;;;;;;;11.43;2.50;;;;;;;;;;4925831;29;20055;-66
2022/10/24 02:10:23;;;;;;;18.60;2.58;;;;;;;;;;4927547;29;20616;-66
2022/10/24 02:12:52;;;;;;;8.30;3.33;;;;;;;;;;4927139;29;20115;-65
2022/10/24 02:15:22;;;;;;;11.23;2.47;;;;;;;;;;4928252;29;20085;-66
2022/10/24 02:17:51;;;;;;;5.88;2.38;;;;;;;;;;4926153;29;20606;-65
2022/10/24 02:20:18;;;;;;;10.57;2.55;;;;;;;;;;4928254;29;20485;-66
2022/10/24 02:22:48;;;;;;;9.60;2.58;;;;;;;;;;4925814;29;20047;-66
2022/10/24 02:25:18;;;;;;;6.78;2.28;;;;;;;;;;4929128;29;20114;-67
2022/10/24 02:27:48;;;;;;;11.82;3.10;;;;;;;;;;4927616;29;20052;-67
2022/10/24 02:30:17;;;;;;;12.40;2.50;;;;;;;;;;4923861;29;20051;-65
2022/10/24 02:32:47;;;;;;;12.25;2.65;;;;;;;;;;4922953;29;20164;-66
2022/10/24 02:35:17;;;;;;;7.88;2.75;;;;;;;;;;4924612;29;20051;-66
2022/10/24 02:37:46;;;;;;;8.23;2.70;;;;;;;;;;4927080;29;20050;-67
2022/10/24 02:40:15;;;;;;;9.77;2.80;;;;;;;;;;4926969;29;20095;-69
2022/10/24 02:42:43;;;;;;;8.45;2.72;;;;;;;;;;4921294;29;20135;-65
2022/10/24 02:45:12;;;;;;;14.20;2.58;;;;;;;;;;4926485;29;20059;-66
2022/10/24 02:47:40;;;;;;;9.27;3.00;;;;;;;;;;4928484;29;20107;-66
2022/10/24 02:50:08;;;;;;;7.47;2.42;;;;;;;;;;4927611;29;20051;-66
2022/10/24 02:52:37;;;;;;;14.52;2.95;;;;;;;;;;4925291;29;20055;-67
2022/10/24 02:55:05;;;;;;;12.00;2.72;;;;;;;;;;4922861;29;20055;-67
2022/10/24 02:57:32;;;;;;;11.25;2.67;;;;;;;;;;4923467;29;20060;-65
2022/10/24 03:00:00;;;;;;;6.40;2.50;;;;;;;;;;4926796;29;20055;-65
2022/10/24 03:02:27;;;;;;;13.25;2.95;;;;;;;;;;4925638;29;20131;-66
2022/10/24 03:04:54;;;;;;;10.70;3.22;;;;;;;;;;4923731;29;20064;-65
2022/10/24 03:07:21;;;;;;;10.75;2.75;;;;;;;;;;4927544;29;20051;-67
2022/10/24 03:09:50;;;;;;;11.82;2.17;;;;;;;;;;4924727;29;20055;-66
2022/10/24 03:12:17;;;;;;;7.03;2.03;;;;;;;;;;4928794;29;20612;-65
2022/10/24 03:14:45;;;;;;;7.13;2.03;;;;;;;;;;4924272;29;20051;-65
2022/10/24 03:17:12;;;;;;;10.55;2.28;;;;;;;;;;4928140;29;20059;-66
2022/10/24 03:19:39;;;;;;;10.45;2.33;;;;;;;;;;4928026;29;20059;-67
2022/10/24 03:22:06;;;;;;;7.05;1.90;;;;;;;;;;4923060;29;20043;-65
2022/10/24 03:24:34;;;;;;;11.55;2.22;;;;;;;;;;4922849;29;20055;-65
2022/10/24 03:27:02;;;;;;;16.70;2.35;;;;;;;;;;4924985;29;20130;-66
2022/10/24 03:29:29;;;;;;;8.48;2.05;;;;;;;;;;4926970;29;20475;-65
2022/10/24 03:31:57;;;;;;;16.17;2.33;;;;;;;;;;4923311;29;20095;-66
2022/10/24 03:34:24;;;;;;;15.50;2.05;;;;;;;;;;4918607;29;20063;-66
2022/10/24 03:36:51;;;;;;;11.13;2.08;;;;;;;;;;4922936;29;20388;-65
2022/10/24 03:39:18;;;;;;;6.35;1.90;;;;;;;;;;4923145;29;20044;-66
2022/10/24 03:41:45;;;;;;;9.18;2.03;;;;;;;;;;4926920;29;20047;-67
2022/10/24 03:44:14;;;;;;;8.68;1.70;;;;;;;;;;4925434;29;20055;-66
2022/10/24 03:46:41;;;;;;;12.20;1.98;;;;;;;;;;4923938;29;20059;-66
2022/10/24 03:49:08;;;;;;;5.93;1.90;;;;;;;;;;4924236;29;20099;-69
2022/10/24 03:51:36;;;;;;;8.35;1.70;;;;;;;;;;4926864;29;20111;-66
2022/10/24 03:54:03;;;;;;;11.10;1.95;;;;;;;;;;4925916;29;20055;-66
2022/10/24 03:56:30;;;;;;;8.02;2.42;;;;;;;;;;4925766;29;20616;-66
2022/10/24 03:58:57;;;;;;;5.97;1.85;;;;;;;;;;4923564;29;20737;-66
2022/10/24 04:01:26;;;;;;;7.57;2.10;;;;;;;;;;4926726;29;20047;-66
2022/10/24 04:03:53;;;;;;;11.40;1.85;;;;;;;;;;4921433;29;20102;-67
2022/10/24 04:06:20;;;;;;;10.10;2.17;;;;;;;;;;4925128;29;20506;-65
2022/10/24 04:08:47;;;;;;;14.70;1.63;;;;;;;;;;4925653;29;20052;-68
2022/10/24 04:11:14;;;;;;;5.45;1.90;;;;;;;;;;4943745;29;20098;-66
2022/10/24 04:13:42;;;;;;;9.88;1.80;;;;;;;;;;4942378;29;20064;-66
2022/10/24 04:16:09;;;;;;;10.93;2.03;;;;;;;;;;4929468;29;20498;-66
2022/10/24 04:18:38;;;;;;;8.93;1.55;;;;;;;;;;4943435;29;20596;-67
2022/10/24 04:21:05;;;;;;;11.75;1.92;;;;;;;;;;4940920;29;20117;-67
2022/10/24 04:23:37;;;;;;;12.25;1.98;;;;;;;;;;4943232;29;20455;-66
2022/10/24 04:26:04;;;;;;;6.00;1.77;;;;;;;;;;4946083;29;20051;-65
2022/10/24 04:28:31;;;;;;;7.10;2.00;;;;;;;;;;4942864;29;20047;-66
2022/10/24 04:30:59;;;;;;;9.98;1.50;;;;;;;;;;4942642;29;20050;-66
2022/10/24 04:33:26;;;;;;;7.68;1.70;;;;;;;;;;4941228;29;20055;-68
2022/10/24 04:35:55;;;;;;;6.95;1.70;;;;;;;;;;4942510;29;20047;-66
2022/10/24 04:38:22;;;;;;;8.35;1.50;;;;;;;;;;4943029;29;20055;-65
2022/10/24 04:40:50;;;;;;;8.68;1.50;;;;;;;;;;4942740;29;20070;-65
2022/10/24 04:43:21;;;;;;;9.90;1.88;;;;;;;;;;4944953;28;20058;-65
2022/10/24 04:45:50;;;;;;;7.20;1.70;;;;;;;;;;4947692;29;20058;-69
2022/10/24 04:48:18;;;;;;;12.32;1.55;;;;;;;;;;4944800;29;20058;-66
2022/10/24 04:50:46;;;;;;;7.72;1.48;;;;;;;;;;4949879;29;20490;-66
2022/10/24 04:53:14;;;;;;;5.85;1.30;;;;;;;;;;4944569;29;20118;-70
2022/10/24 04:55:42;;;;;;;7.38;1.70;;;;;;;;;;4932794;29;20067;-65
2022/10/24 04:58:09;;;;;;;7.80;1.60;;;;;;;;;;4949326;29;20043;-65
2022/10/24 05:00:36;;;;;;;7.47;1.30;;;;;;;;;;4944431;29;20458;-66
2022/10/24 05:03:03;;;;;;;8.60;1.40;;;;;;;;;;4948913;28;20059;-67
2022/10/24 05:05:30;;;;;;;8.70;1.25;;;;;;;;;;4918992;29;20059;-67
2022/10/24 05:07:58;;;;;;;8.32;1.27;;;;;;;;;;4939620;29;20060;-65
2022/10/24 05:10:26;;;;;;;8.88;1.10;;;;;;;;;;4936158;29;20310;-66
2022/10/24 05:12:53;;;;;;;10.25;1.75;;;;;;;;;;4948875;29;20078;-66
2022/10/24 05:15:21;;;;;;;4.80;1.20;;;;;;;;;;4948475;29;20051;-67
2022/10/24 05:17:48;;;;;;;11.52;1.88;;;;;;;;;;4947600;29;20573;-67
2022/10/24 05:20:15;;;;;;;8.02;1.30;;;;;;;;;;4943652;29;20051;-66
2022/10/24 05:22:45;;;;;;;8.68;1.35;;;;;;;;;;4943138;29;20458;-65
2022/10/24 05:25:12;;;;;;;9.27;1.45;;;;;;;;;;4947544;29;20115;-67
2022/10/24 05:27:40;;;;;;;14.50;1.83;;;;;;;;;;4940456;29;20522;-65
2022/10/24 05:30:08;;;;;;;7.20;1.40;;;;;;;;;;4944065;29;20658;-66
2022/10/24 05:32:35;;;;;;;10.88;1.60;;;;;;;;;;4929815;29;20066;-66
2022/10/24 05:35:03;;;;;;;10.30;1.40;;;;;;;;;;4947307;29;20046;-66
2022/10/24 05:37:30;;;;;;;6.88;1.40;;;;;;;;;;4944764;29;20162;-66
2022/10/24 05:39:57;;;;;;;11.13;1.92;;;;;;;;;;4932445;29;20568;-67
2022/10/24 05:42:24;;;;;;;10.43;1.50;;;;;;;;;;4948126;29;20055;-66
2022/10/24 05:44:53;;;;;;;8.32;1.20;;;;;;;;;;4949100;29;20132;-66
2022/10/24 05:47:20;;;;;;;8.95;1.27;;;;;;;;;;4948283;29;20879;-65
2022/10/24 05:49:47;;;;;;;9.93;1.63;;;;;;;;;;4945844;29;20513;-66
2022/10/24 05:52:14;;;;;;;6.18;1.20;;;;;;;;;;4946362;29;20073;-66
2022/10/24 05:54:41;;;;;;;8.00;1.17;;;;;;;;;;4945624;28;20055;-66
2022/10/24 05:57:09;;;;;;;9.52;1.33;;;;;;;;;;4935468;29;20092;-66
2022/10/24 05:59:36;;;;;;;10.68;1.55;;;;;;;;;;4930932;29;20078;-66
2022/10/24 06:02:04;;;;;;;9.65;1.35;;;;;;;;;;4946000;29;20054;-67
2022/10/24 06:04:32;;;;;;;10.48;1.58;;;;;;;;;;4942576;28;20051;-66
2022/10/24 06:06:59;;;;;;;7.68;1.40;;;;;;;;;;4942174;29;20114;-66
2022/10/24 06:09:26;;;;;;;7.70;1.35;;;;;;;;;;4946940;29;20541;-67
2022/10/24 06:11:53;;;;;;;7.15;1.20;;;;;;;;;;4947950;29;20055;-67
2022/10/24 06:14:21;;;;;;;7.50;1.13;;;;;;;;;;4946909;29;20110;-66
2022/10/24 06:16:48;;;;;;;8.98;1.40;;;;;;;;;;4948553;29;20058;-66
2022/10/24 06:19:17;;;;;;;7.93;1.40;;;;;;;;;;4946893;29;20047;-65
2022/10/24 06:21:47;;;;;;;9.98;1.50;;;;;;;;;;4922929;29;20059;-68
2022/10/24 06:24:14;;;;;;;10.90;1.58;;;;;;;;;;4942777;29;20063;-66
2022/10/24 06:26:41;;;;;;;11.95;1.52;;;;;;;;;;4946449;29;20058;-66
2022/10/24 06:29:09;;;;;;;8.23;1.10;;;;;;;;;;4943531;29;20114;-66
2022/10/24 06:31:37;;;;;;;8.85;1.48;;;;;;;;;;4941051;29;20055;-65
2022/10/24 06:34:04;;;;;;;11.00;1.75;;;;;;;;;;4926060;29;20047;-67
2022/10/24 06:36:34;;;;;;;8.73;1.20;;;;;;;;;;4947508;29;20070;-66
2022/10/24 06:39:01;;;;;;;11.27;1.48;;;;;;;;;;4944431;29;20055;-66
2022/10/24 06:41:29;;;;;;;9.95;1.17;;;;;;;;;;4947062;29;20064;-68
2022/10/24 06:43:56;;;;;;;9.00;1.17;;;;;;;;;;4948641;29;20058;-66
2022/10/24 06:46:23;;;;;;;8.68;1.20;;;;;;;;;;4945827;29;20138;-66
2022/10/24 06:48:53;;;;;;;7.47;1.20;;;;;;;;;;4947510;29;20055;-66
2022/10/24 06:51:22;;;;;;;8.52;1.20;;;;;;;;;;4945095;29;20086;-67
2022/10/24 06:53:51;;;;;;;8.48;1.30;;;;;;;;;;4941839;29;20126;-67
2022/10/24 06:56:18;;;;;;;11.45;1.60;;;;;;;;;;4941871;29;20051;-66
2022/10/24 06:58:46;;;;;;;10.90;1.13;;;;;;;;;;4944010;29;20054;-66
2022/10/24 07:01:15;;;;;;;7.85;1.40;;;;;;;;;;4945461;29;20050;-70
2022/10/24 07:03:42;;;;;;;6.93;1.25;;;;;;;;;;4928100;29;20051;-66
2022/10/24 07:06:12;;;;;;;11.65;1.40;;;;;;;;;;4945672;28;20052;-66
2022/10/24 07:08:39;;;;;;;5.18;1.30;;;;;;;;;;4940546;29;20450;-65
2022/10/24 07:11:08;;;;;;;11.68;1.30;;;;;;;;;;4942960;29;20051;-66
2022/10/24 07:13:35;;;;;;;10.80;1.60;;;;;;;;;;4945304;29;20049;-66
2022/10/24 07:16:05;;;;;;;9.18;1.48;;;;;;;;;;4943362;29;20106;-67
2022/10/24 07:18:33;;;;;;;8.63;1.45;;;;;;;;;;4927365;29;20213;-67
2022/10/24 07:21:04;;;;;;;8.80;1.05;;;;;;;;;;4943525;29;20673;-66
2022/10/24 07:23:31;;;;;;;5.90;0.90;;;;;;;;;;4944614;29;20051;-65
2022/10/24 07:26:01;;;;;;;6.93;1.20;;;;;;;;;;4943069;29;20054;-65
2022/10/24 07:28:30;;;;;;;11.15;1.27;;;;;;;;;;4943836;29;20166;-65
2022/10/24 07:30:57;;;;;;;13.45;1.23;;;;;;;;;;4944087;29;20043;-67
2022/10/24 07:33:26;;;;;;;10.55;0.98;;;;;;;;;;4944760;29;20047;-65
2022/10/24 07:35:57;;;;;;;9.02;1.10;;;;;;;;;;4945940;29;21303;-68
2022/10/24 07:38:24;;;;;;;7.60;1.40;;;;;;;;;;4926946;29;20062;-67
2022/10/24 07:40:51;;;;;;;10.07;1.33;;;;;;;;;;4942217;29;20051;-67
2022/10/24 07:43:18;;;;;;;6.18;1.00;;;;;;;;;;4942777;29;20450;-67
2022/10/24 07:45:48;;;;;;;12.15;1.20;;;;;;;;;;4946149;29;20043;-66
2022/10/24 07:48:16;;;;;;;12.30;2.15;;;;;;;;;;4927856;29;20130;-66
2022/10/24 07:50:44;;;;;;;6.50;1.13;;;;;;;;;;4946284;29;20058;-66
2022/10/24 07:53:12;;;;;;;9.73;1.20;;;;;;;;;;4929054;29;20060;-68
2022/10/24 07:55:39;;;;;;;11.30;1.55;;;;;;;;;;4945410;29;20814;-67
2022/10/24 07:58:07;;;;;;;7.05;1.13;;;;;;;;;;4945091;29;20054;-66
2022/10/24 08:00:34;;;;;;;11.40;1.52;;;;;;;;;;4943691;29;20051;-67
2022/10/24 08:03:03;;;;;;;5.43;1.10;;;;;;;;;;4945311;28;20493;-67
2022/10/24 08:05:33;;;;;;;13.85;1.30;;;;;;;;;;4944633;29;20093;-68
2022/10/24 08:08:00;;;;;;;12.20;1.50;;;;;;;;;;4928367;29;20058;-67
2022/10/24 08:10:27;;;;;;;10.57;1.35;;;;;;;;;;4942672;29;20788;-65
2022/10/24 08:12:54;;;;;;;9.45;1.38;;;;;;;;;;4943050;29;20066;-67
2022/10/24 08:15:26;;;;;;;8.73;1.40;;;;;;;;;;4926001;29;20067;-66
2022/10/24 08:17:53;;;;;;;4.30;0.88;;;;;;;;;;4943374;28;20971;-67
2022/10/24 08:20:25;;;;;;;13.27;1.58;;;;;;;;;;4925935;29;20359;-67
2022/10/24 08:22:52;;;;;;;9.43;1.55;;;;;;;;;;4945558;29;20058;-66
2022/10/24 08:25:19;;;;;;;7.78;1.08;;;;;;;;;;4946106;29;20134;-66
2022/10/24 08:27:47;;;;;;;7.43;1.30;;;;;;;;;;4947358;29;20051;-65
2022/10/24 08:30:16;;;;;;;7.85;1.15;;;;;;;;;;4946392;29;22223;-69
2022/10/24 08:32:43;;;;;;;9.80;1.73;;;;;;;;;;4950034;29;20745;-66
2022/10/24 08:35:10;;;;;;;11.52;1.63;;;;;;;;;;4944728;29;20051;-66
2022/10/24 08:37:39;;;;;;;7.47;1.33;;;;;;;;;;4949410;29;20054;-65
2022/10/24 08:40:11;;;;;;;9.07;1.70;;;;;;;;;;4948003;29;20059;-66
2022/10/24 08:42:39;;;;;;;8.88;1.42;;;;;;;;;;4947166;29;20390;-65
2022/10/24 08:45:10;;;;;;;10.25;1.35;;;;;;;;;;4946882;29;20043;-66
2022/10/24 08:47:39;;;;;;;10.43;1.42;;;;;;;;;;4949018;29;20092;-69
2022/10/24 08:50:13;;;;;;;9.15;1.20;;;;;;;;;;4946983;29;20119;-66
2022/10/24 08:52:44;;;;;;;9.18;1.20;;;;;;;;;;4947094;29;20565;-66
2022/10/24 08:55:13;;;;;;;7.35;1.38;;;;;;;;;;4947250;29;20054;-65
2022/10/24 08:57:42;;;;;;;10.20;1.27;;;;;;;;;;4948582;29;20485;-65
2022/10/24 09:00:14;;;;;;;13.45;1.98;;;;;;;;;;4948872;29;20075;-67
2022/10/24 09:02:43;;;;;;;9.80;1.17;;;;;;;;;;4947056;28;20062;-65
2022/10/24 09:05:22;;;;;;;8.05;1.52;;;;;;;;;;4949407;29;20701;-66
2022/10/24 09:07:53;;;;;;;9.45;1.40;;;;;;;;;;4946651;29;20409;-66
2022/10/24 09:10:23;;;;;;;10.88;1.77;;;;;;;;;;4930327;29;20546;-66
2022/10/24 09:12:50;;;;;;;8.30;1.92;;;;;;;;;;4950002;29;20043;-65
2022/10/24 09:15:19;;;;;;;7.55;1.15;;;;;;;;;;4948507;29;20777;-65
2022/10/24 09:17:47;;;;;;;7.00;1.30;;;;;;;;;;4945566;29;20058;-65
2022/10/24 09:20:22;;;;;;;14.65;1.92;;;;;;;;;;4948944;29;20055;-66
2022/10/24 09:22:49;;;;;;;10.13;1.85;;;;;;;;;;4947007;29;20047;-65
2022/10/24 09:25:21;;;;;;;15.60;1.42;;;;;;;;;;4946937;29;20035;-66
2022/10/24 09:27:48;;;;;;;14.35;1.58;;;;;;;;;;4945251;29;20059;-66
2022/10/24 09:30:17;;;;;;;10.18;1.50;;;;;;;;;;4945192;28;20062;-65
2022/10/24 09:32:44;;;;;;;8.55;1.35;;;;;;;;;;4949733;29;20491;-65
2022/10/24 09:35:16;;;;;;;13.85;1.70;;;;;;;;;;4930591;29;20077;-65
2022/10/24 09:37:44;;;;;;;10.23;1.58;;;;;;;;;;4930815;29;20063;-67
2022/10/24 09:40:18;;;;;;;9.93;1.88;;;;;;;;;;4946308;29;20055;-66
2022/10/24 09:42:51;;;;;;;12.07;1.42;;;;;;;;;;4948719;29;20564;-66
2022/10/24 09:45:19;;;;;;;14.60;1.92;;;;;;;;;;4948058;29;20173;-66
2022/10/24 09:47:47;;;;;;;10.55;1.50;;;;;;;;;;4948131;29;21147;-66
2022/10/24 09:50:20;;;;;;;14.10;1.85;;;;;;;;;;4941338;29;20067;-66
2022/10/24 09:52:49;;;;;;;12.60;1.67;;;;;;;;;;4945140;29;20146;-65
2022/10/24 09:55:17;;;;;;;12.30;1.80;;;;;;;;;;4931191;29;20141;-66
2022/10/24 09:57:45;;;;;;;12.90;2.20;;;;;;;;;;4942295;29;20051;-65
2022/10/24 10:00:23;;;;;;;12.80;1.80;;;;;;;;;;4942370;29;20059;-66
2022/10/24 10:03:04;;;;;;;16.10;2.55;;;;;;;;;;4947814;28;20081;-67
2022/10/24 10:05:46;;;;;;;14.27;2.22;;;;;;;;;;4947056;29;20062;-65
2022/10/24 10:08:18;;;;;;;16.00;2.88;;;;;;;;;;4940696;29;20510;-67
2022/10/24 10:10:55;;;;;;;16.48;2.35;;;;;;;;;;4945127;29;20062;-66
2022/10/24 10:13:24;;;;;;;20.58;2.45;;;;;;;;;;4944403;29;20509;-66
2022/10/24 10:15:54;;;;;;;18.40;2.70;;;;;;;;;;4948261;29;20043;-66
2022/10/24 10:18:24;;;;;;;14.98;2.33;;;;;;;;;;4946183;29;20050;-69
2022/10/24 10:20:59;;;;;;;19.27;2.58;;;;;;;;;;4944596;29;20051;-66
2022/10/24 10:23:28;;;;;;;20.67;2.50;;;;;;;;;;4946742;29;20048;-67
2022/10/24 10:26:03;;;;;;;18.98;2.75;;;;;;;;;;4947373;29;20047;-66
2022/10/24 10:28:30;;;;;;;27.75;3.50;;;;;;;;;;4946983;29;20059;-67
2022/10/24 10:31:02;;;;;;;21.35;2.28;;;;;;;;;;4929304;29;20693;-67
2022/10/24 10:33:35;;;;;;;18.75;2.53;;;;;;;;;;4945789;29;20426;-66
2022/10/24 10:36:02;;;;;;;;;;;;;;;;;;4947763;29;20058;-67
2022/10/24 10:38:41;;;;;;;19.67;2.67;;;;;;;;;;4948012;29;19926;-66
2022/10/24 10:41:12;;;;;;;18.20;2.28;;;;;;;;;;4945595;28;20050;-66
2022/10/24 10:43:44;;;;;;;17.40;2.53;;;;;;;;;;4947856;29;20067;-65
2022/10/24 10:46:21;;;;;;;20.40;2.80;;;;;;;;;;4940610;29;20058;-65
2022/10/24 10:48:57;;;;;;;19.05;3.00;;;;;;;;;;4946819;29;20406;-66
2022/10/24 10:51:29;;;;;;;18.25;3.13;;;;;;;;;;4947195;29;20070;-66
2022/10/24 10:53:59;;;;;;;24.27;3.00;;;;;;;;;;4945800;29;20069;-65
2022/10/24 10:56:32;;;;;;;18.55;2.70;;;;;;;;;;4946073;29;20054;-67
2022/10/24 10:59:04;;;;;;;18.33;2.83;;;;;;;;;;4946929;29;20109;-66
2022/10/24 11:01:40;;;;;;;11.48;2.10;;;;;;;;;;4945666;29;20055;-66
2022/10/24 11:04:14;;;;;;;15.43;3.13;;;;;;;;;;4946200;28;20047;-65
2022/10/24 11:06:44;;;;;;;19.17;3.10;;;;;;;;;;4930659;29;20055;-69
2022/10/24 11:09:26;;;;;;;16.08;2.38;;;;;;;;;;4942748;29;20056;-66
2022/10/24 11:11:55;;;;;;;13.15;2.08;;;;;;;;;;4941661;29;20055;-66
2022/10/24 11:14:28;;;;;;;16.20;2.70;;;;;;;;;;4944016;29;20079;-66
2022/10/24 11:16:58;;;;;;;19.85;3.03;;;;;;;;;;4946211;29;20497;-67
2022/10/24 11:19:29;;;;;;;18.85;3.08;;;;;;;;;;4945933;29;20047;-67
2022/10/24 11:21:57;;;;;;;18.52;2.90;;;;;;;;;;4945174;29;20054;-66
2022/10/24 11:24:25;;;;;;;14.77;2.40;;;;;;;;;;4942047;29;20044;-66
2022/10/24 11:26:56;;;;;;;16.80;2.40;;;;;;;;;;4929056;29;20063;-65
2022/10/24 11:29:27;;;;;;;14.55;2.90;;;;;;;;;;4943662;29;20055;-67
2022/10/24 11:31:57;;;;;;;21.65;3.28;;;;;;;;;;4939258;29;20051;-66
2022/10/24 11:34:31;;;;;;;18.08;2.60;;;;;;;;;;4946169;29;20070;-67
2022/10/24 11:37:00;;;;;;;17.20;2.75;;;;;;;;;;4936588;29;20062;-66
2022/10/24 11:39:30;;;;;;;14.15;2.50;;;;;;;;;;4944532;29;20672;-66
2022/10/24 11:42:00;;;;;;;22.23;3.33;;;;;;;;;;4942567;29;20058;-66
2022/10/24 11:44:35;;;;;;;15.00;2.25;;;;;;;;;;4941109;29;20743;-66
2022/10/24 11:47:07;;;;;;;17.77;2.40;;;;;;;;;;4945019;29;20055;-69
2022/10/24 11:49:38;;;;;;;19.02;2.55;;;;;;;;;;4942406;29;20455;-64
2022/10/24 11:52:11;;;;;;;20.70;2.65;;;;;;;;;;4942813;28;20114;-65
2022/10/24 11:54:41;;;;;;;24.23;3.05;;;;;;;;;;4948538;29;20509;-64
2022/10/24 11:57:11;;;;;;;15.05;2.55;;;;;;;;;;4949299;29;20051;-65
2022/10/24 11:59:38;;;;;;;21.75;3.05;;;;;;;;;;4945900;29;20047;-64
2022/10/24 12:02:31;;;;;;;13.20;2.65;;;;;;;;;;4945944;29;20086;-65
2022/10/24 12:05:14;;;;;;;21.25;2.78;;;;;;;;;;4944071;29;20047;-65
2022/10/24 12:08:05;;;;;;;21.17;3.07;;;;;;;;;;4947492;29;20047;-65
2022/10/24 12:10:38;;;;;;;20.60;2.50;;;;;;;;;;4946101;29;20355;-65
2022/10/24 12:13:15;;;;;;;15.70;3.07;;;;;;;;;;4936344;29;20051;-67
2022/10/24 12:15:47;;;;;;;19.63;2.53;;;;;;;;;;4950982;29;20609;-66
2022/10/24 12:18:25;;;;;;;16.88;2.25;;;;;;;;;;4947355;29;20078;-65
2022/10/24 12:20:54;;;;;;;13.95;2.72;;;;;;;;;;4947566;29;20070;-65
2022/10/24 12:23:23;;;;;;;14.32;1.92;;;;;;;;;;4946278;29;20637;-65
2022/10/24 12:26:01;;;;;;;11.13;1.70;;;;;;;;;;4938286;29;20479;-65
2022/10/24 12:28:29;;;;;;;12.07;1.50;;;;;;;;;;4946100;29;20465;-65
2022/10/24 12:31:09;;;;;;;11.20;1.70;;;;;;;;;;4947749;29;20059;-66
2022/10/24 12:33:36;;;;;;;11.43;1.60;;;;;;;;;;4947416;29;21320;-66
2022/10/24 12:36:06;;;;;;;14.98;1.80;;;;;;;;;;4948859;29;20470;-65
2022/10/24 12:39:07;;;;;;;10.40;1.65;;;;;;;;;;4948876;29;20212;-67
2022/10/24 12:41:44;;;;;;;18.05;2.05;;;;;;;;;;4933746;29;20067;-65
2022/10/24 12:44:30;;;;;;;13.90;1.95;;;;;;;;;;4947681;29;20059;-66
2022/10/24 12:46:57;;;;;;;12.15;1.58;;;;;;;;;;4949405;29;20410;-66
2022/10/24 12:49:28;;;;;;;13.35;1.58;;;;;;;;;;4947011;29;20111;-65
2022/10/24 12:51:57;;;;;;;11.55;1.63;;;;;;;;;;4950308;29;20059;-65
2022/10/24 12:54:40;;;;;;;16.05;1.80;;;;;;;;;;4947824;29;20051;-65
2022/10/24 12:57:24;;;;;;;13.77;2.00;;;;;;;;;;4944883;29;20089;-66
2022/10/24 12:59:53;;;;;;;13.00;2.17;;;;;;;;;;4945671;29;20074;-65
2022/10/24 13:02:32;;;;;;;17.45;2.50;;;;;;;;;;4944803;29;20508;-65
2022/10/24 13:05:04;;;;;;;12.18;1.73;;;;;;;;;;4948212;28;20066;-66
2022/10/24 13:07:53;;;;;;;14.40;1.77;;;;;;;;;;4947685;29;20071;-65
2022/10/24 13:10:41;;;;;;;13.23;2.13;;;;;;;;;;4948046;29;20110;-66
2022/10/24 13:13:18;;;;;;;13.43;1.85;;;;;;;;;;4939686;29;20064;-65
2022/10/24 13:15:48;;;;;;;12.13;1.83;;;;;;;;;;4941579;29;20110;-65
2022/10/24 13:18:22;;;;;;;21.95;2.35;;;;;;;;;;4946764;29;20054;-65
2022/10/24 13:20:50;;;;;;;14.32;2.10;;;;;;;;;;4949323;29;20039;-64
2022/10/24 13:23:25;;;;;;;14.40;1.77;;;;;;;;;;4931126;29;20522;-66
2022/10/24 13:25:55;;;;;;;11.07;1.38;;;;;;;;;;4943788;29;20796;-65
2022/10/24 13:28:42;;;;;;;8.93;1.15;;;;;;;;;;4944835;29;20059;-65
2022/10/24 13:31:28;;;;;;;12.65;1.67;;;;;;;;;;4942642;29;20097;-66
2022/10/24 13:34:08;;;;;;;16.30;1.80;;;;;;;;;;4946004;29;20062;-64
2022/10/24 13:36:35;;;;;;;17.38;2.15;;;;;;;;;;4948244;29;20051;-66
2022/10/24 13:39:05;;;;;;;12.38;1.63;;;;;;;;;;4948571;29;20055;-67
2022/10/24 13:41:34;;;;;;;20.90;2.10;;;;;;;;;;4948601;29;20059;-65
2022/10/24 13:44:03;;;;;;;21.85;2.45;;;;;;;;;;4946095;29;20096;-66
2022/10/24 13:46:35;;;;;;;19.15;2.10;;;;;;;;;;4947997;29;20066;-66
2022/10/24 13:49:03;;;;;;;18.60;2.47;;;;;;;;;;4942383;29;20055;-67
2022/10/24 13:51:37;;;;;;;16.05;2.05;;;;;;;;;;4947982;29;20454;-67
2022/10/24 13:54:11;;;;;;;21.67;2.88;;;;;;;;;;4947506;29;20426;-66
2022/10/24 13:56:44;;;;;;;15.13;2.00;;;;;;;;;;4948353;29;20059;-65
2022/10/24 13:59:12;;;;;;;;;;;;;;;;;;4947225;29;20047;-67
2022/10/24 14:01:41;;;;;;;17.80;1.75;;;;;;;;;;4948750;29;19923;-66
2022/10/24 14:04:08;;;;;;;13.38;1.83;;;;;;;;;;4946618;28;20079;-65
2022/10/24 14:06:37;;;;;;;14.82;1.65;;;;;;;;;;4948212;29;20461;-67
2022/10/24 14:09:08;;;;;;;15.45;2.05;;;;;;;;;;4945492;29;20051;-66
2022/10/24 14:11:40;;;;;;;11.07;1.98;;;;;;;;;;4930546;29;20671;-69
2022/10/24 14:14:13;;;;;;;13.73;1.75;;;;;;;;;;4940442;29;20044;-67
2022/10/24 14:16:41;;;;;;;15.70;1.77;;;;;;;;;;4945043;29;20086;-66
2022/10/24 14:19:11;;;;;;;16.38;1.80;;;;;;;;;;4946002;29;20060;-66
2022/10/24 14:21:40;;;;;;;15.30;2.13;;;;;;;;;;4948633;29;20051;-65
2022/10/24 14:24:09;;;;;;;8.32;1.40;;;;;;;;;;4947473;29;20047;-66
2022/10/24 14:26:38;;;;;;;11.52;1.50;;;;;;;;;;4944025;29;20111;-68
2022/10/24 14:29:05;;;;;;;18.00;2.40;;;;;;;;;;4942503;29;20051;-66
2022/10/24 14:31:33;;;;;;;15.20;2.03;;;;;;;;;;4947026;29;20058;-67
2022/10/24 14:34:01;;;;;;;12.07;1.50;;;;;;;;;;4947596;29;20550;-68
2022/10/24 14:36:29;;;;;;;16.15;2.05;;;;;;;;;;4945270;29;20075;-66
2022/10/24 14:38:59;;;;;;;15.02;2.00;;;;;;;;;;4946873;29;20051;-67
2022/10/24 14:41:27;;;;;;;17.45;1.85;;;;;;;;;;4947028;29;20074;-66
2022/10/24 14:43:57;;;;;;;17.48;2.85;;;;;;;;;;4941073;29;20668;-65
2022/10/24 14:46:28;;;;;;;12.57;1.50;;;;;;;;;;4946948;29;20059;-65
2022/10/24 14:48:55;;;;;;;10.45;1.90;;;;;;;;;;4947325;29;20074;-66
2022/10/24 14:51:25;;;;;;;16.80;1.65;;;;;;;;;;4929483;29;20062;-65